Kt Birdie — 3FUJ7 — position and weather

sailwx.info

Track history (hours):
 
Tides and Currents Weather Stations Pressure Air Temp Water Temp Dewpoint Dewpoint Depression Visibility Wind Speed Wind Dir Waves Ship Positions

Kt Birdie

Last reported at 2017-Nov-08 22:37 UTC. Time now 2017-Dec-13 14:53 UTC.
Position N 01°15' E 104°01'.
Warning: this ship's position is 34 days out of date.

Length 225 m; draft 13.2 m.

Type: Cargo ship. MMSI: 354803000.

Date/timePositionNaut miles runAvg speedWind from/ knotsBaromVisibWave heightAir tempDewpointWater temp
2017-Nov-08 22:37N 01°15' E 104°01'1 7.2
2017-Nov-08 22:30N 01°15' E 104°00'3 0.4
2017-Nov-08 15:31N 01°17' E 103°59'0 0.2
2017-Nov-08 15:25N 01°17' E 103°59'0 0.2
2017-Nov-08 14:55N 01°17' E 103°59'0 0.0
2017-Nov-08 13:01N 01°17' E 103°59'0 0.1
2017-Nov-08 12:58N 01°17' E 103°59'0 0.0
2017-Nov-08 12:28N 01°17' E 103°59'0 0.0
2017-Nov-08 11:10N 01°17' E 103°59'0 0.1
2017-Nov-08 11:00N 01°17' E 103°59'0 0.0
2017-Nov-08 10:30N 01°17' E 103°59'0 0.1
2017-Nov-08 09:59N 01°17' E 103°59'1 1.3
2017-Nov-08 09:30N 01°17' E 103°59'3 4.9
2017-Nov-08 08:59N 01°15' E 103°58'2 3.7
2017-Nov-08 08:30N 01°14' E 103°56'2 4.4
2017-Nov-08 08:01N 01°13' E 103°55'3 5.4
2017-Nov-08 07:30N 01°11' E 103°52'4 8.8
2017-Nov-08 07:01N 01°10' E 103°48'611.7
2017-Nov-08 06:30N 01°06' E 103°44'510.8
2017-Nov-08 06:00N 01°03' E 103°39'611.8
2017-Nov-08 05:30N 01°06' E 103°34'611.5
2017-Nov-08 05:00N 01°08' E 103°29'611.5
2017-Nov-08 04:30N 01°12' E 103°24'612.1
2017-Nov-08 03:59N 01°16' E 103°19'  
Track history (hours):
 
Tides and Currents Weather Stations Pressure Air Temp Water Temp Dewpoint Dewpoint Depression Visibility Wind Speed Wind Dir Waves Ship Positions

Kt Birdie

Last reported at 2017-Nov-08 22:37 UTC. Time now 2017-Dec-13 14:53 UTC.
Position N 01°15' E 104°01'.
Warning: this ship's position is 34 days out of date.

Length 225 m; draft 13.2 m.

Type: Cargo ship. MMSI: 354803000.

Date/timePositionNaut miles runAvg speedWind from/ knotsBaromVisibWave heightAir tempDewpointWater temp
2017-Nov-08 22:37N 01°15' E 104°01'1 7.2
2017-Nov-08 22:30N 01°15' E 104°00'3 0.4
2017-Nov-08 15:31N 01°17' E 103°59'0 0.2
2017-Nov-08 15:25N 01°17' E 103°59'0 0.2
2017-Nov-08 14:55N 01°17' E 103°59'0 0.0
2017-Nov-08 13:01N 01°17' E 103°59'0 0.1
2017-Nov-08 12:58N 01°17' E 103°59'0 0.0
2017-Nov-08 12:28N 01°17' E 103°59'0 0.0
2017-Nov-08 11:10N 01°17' E 103°59'0 0.1
2017-Nov-08 11:00N 01°17' E 103°59'0 0.0
2017-Nov-08 10:30N 01°17' E 103°59'0 0.1
2017-Nov-08 09:59N 01°17' E 103°59'1 1.3
2017-Nov-08 09:30N 01°17' E 103°59'3 4.9
2017-Nov-08 08:59N 01°15' E 103°58'2 3.7
2017-Nov-08 08:30N 01°14' E 103°56'2 4.4
2017-Nov-08 08:01N 01°13' E 103°55'3 5.4
2017-Nov-08 07:30N 01°11' E 103°52'4 8.8
2017-Nov-08 07:01N 01°10' E 103°48'611.7
2017-Nov-08 06:30N 01°06' E 103°44'510.8
2017-Nov-08 06:00N 01°03' E 103°39'611.8
2017-Nov-08 05:30N 01°06' E 103°34'611.5
2017-Nov-08 05:00N 01°08' E 103°29'611.5
2017-Nov-08 04:30N 01°12' E 103°24'612.1
2017-Nov-08 03:59N 01°16' E 103°19'  

Dump ship's entire track history